sensor_id;sensor_type;location;lat;lon;timestamp;temperature;humidity
12166;DHT22;6146;48.128;11.476;2023-02-02T00:01:40;4.60;99.90
12166;DHT22;6146;48.128;11.476;2023-02-02T00:04:05;4.60;99.90
12166;DHT22;6146;48.128;11.476;2023-02-02T00:06:32;4.60;99.90
12166;DHT22;6146;48.128;11.476;2023-02-02T00:09:00;4.60;99.90
12166;DHT22;6146;48.128;11.476;2023-02-02T00:11:26;4.60;99.90
12166;DHT22;6146;48.128;11.476;2023-02-02T00:13:52;4.60;99.90
12166;DHT22;6146;48.128;11.476;2023-02-02T00:16:34;4.60;99.90
12166;DHT22;6146;48.128;11.476;2023-02-02T00:19:07;4.70;99.90
12166;DHT22;6146;48.128;11.476;2023-02-02T00:21:33;4.70;99.90
12166;DHT22;6146;48.128;11.476;2023-02-02T00:23:59;4.60;99.90
12166;DHT22;6146;48.128;11.476;2023-02-02T00:26:24;4.60;99.90
12166;DHT22;6146;48.128;11.476;2023-02-02T00:28:50;4.60;99.90
12166;DHT22;6146;48.128;11.476;2023-02-02T00:31:16;4.60;99.90
12166;DHT22;6146;48.128;11.476;2023-02-02T00:33:45;4.60;99.90
12166;DHT22;6146;48.128;11.476;2023-02-02T00:36:11;4.50;99.90
12166;DHT22;6146;48.128;11.476;2023-02-02T00:38:37;4.50;99.90
12166;DHT22;6146;48.128;11.476;2023-02-02T00:41:03;4.50;99.90
12166;DHT22;6146;48.128;11.476;2023-02-02T00:43:29;4.50;99.90
12166;DHT22;6146;48.128;11.476;2023-02-02T00:45:55;4.50;99.90
12166;DHT22;6146;48.128;11.476;2023-02-02T00:48:20;4.50;99.90
12166;DHT22;6146;48.128;11.476;2023-02-02T00:50:46;4.40;99.90
12166;DHT22;6146;48.128;11.476;2023-02-02T00:53:11;4.40;99.90
12166;DHT22;6146;48.128;11.476;2023-02-02T00:55:37;4.40;99.90
12166;DHT22;6146;48.128;11.476;2023-02-02T00:58:02;4.40;99.90
12166;DHT22;6146;48.128;11.476;2023-02-02T01:00:28;4.30;99.90
12166;DHT22;6146;48.128;11.476;2023-02-02T01:02:54;4.30;99.90
12166;DHT22;6146;48.128;11.476;2023-02-02T01:05:20;4.20;99.90
12166;DHT22;6146;48.128;11.476;2023-02-02T01:07:46;4.10;99.90
12166;DHT22;6146;48.128;11.476;2023-02-02T01:10:15;4.10;99.90
12166;DHT22;6146;48.128;11.476;2023-02-02T01:12:41;4.10;99.90
12166;DHT22;6146;48.128;11.476;2023-02-02T01:15:08;4.00;99.90
12166;DHT22;6146;48.128;11.476;2023-02-02T01:17:34;4.00;99.90
12166;DHT22;6146;48.128;11.476;2023-02-02T01:20:00;4.00;99.90
12166;DHT22;6146;48.128;11.476;2023-02-02T01:22:25;4.00;99.90
12166;DHT22;6146;48.128;11.476;2023-02-02T01:24:51;3.90;99.90
12166;DHT22;6146;48.128;11.476;2023-02-02T01:27:17;4.00;99.90
12166;DHT22;6146;48.128;11.476;2023-02-02T01:29:43;4.00;99.90
12166;DHT22;6146;48.128;11.476;2023-02-02T01:32:09;4.00;99.90
12166;DHT22;6146;48.128;11.476;2023-02-02T01:34:35;4.00;99.90
12166;DHT22;6146;48.128;11.476;2023-02-02T01:37:05;4.00;99.90
12166;DHT22;6146;48.128;11.476;2023-02-02T01:39:30;4.10;99.90
12166;DHT22;6146;48.128;11.476;2023-02-02T01:41:56;4.10;99.90
12166;DHT22;6146;48.128;11.476;2023-02-02T01:47:27;4.10;99.90
12166;DHT22;6146;48.128;11.476;2023-02-02T01:49:54;4.10;99.90
12166;DHT22;6146;48.128;11.476;2023-02-02T01:52:22;4.10;99.90
12166;DHT22;6146;48.128;11.476;2023-02-02T01:54:56;4.20;99.90
12166;DHT22;6146;48.128;11.476;2023-02-02T01:57:32;4.20;99.90
12166;DHT22;6146;48.128;11.476;2023-02-02T02:00:03;4.20;99.90
12166;DHT22;6146;48.128;11.476;2023-02-02T02:02:30;4.30;99.90
12166;DHT22;6146;48.128;11.476;2023-02-02T02:04:58;4.30;99.90
12166;DHT22;6146;48.128;11.476;2023-02-02T02:07:25;4.20;99.90
12166;DHT22;6146;48.128;11.476;2023-02-02T02:09:51;4.20;99.90
12166;DHT22;6146;48.128;11.476;2023-02-02T02:12:16;4.20;99.90
12166;DHT22;6146;48.128;11.476;2023-02-02T02:14:44;4.20;99.90
12166;DHT22;6146;48.128;11.476;2023-02-02T02:20:46;4.20;99.90
12166;DHT22;6146;48.128;11.476;2023-02-02T02:23:38;4.20;99.90
12166;DHT22;6146;48.128;11.476;2023-02-02T02:40:39;4.20;99.90
12166;DHT22;6146;48.128;11.476;2023-02-02T02:43:20;4.20;99.90
12166;DHT22;6146;48.128;11.476;2023-02-02T02:45:47;4.30;99.90
12166;DHT22;6146;48.128;11.476;2023-02-02T02:48:14;4.30;99.90
12166;DHT22;6146;48.128;11.476;2023-02-02T02:50:40;4.30;99.90
12166;DHT22;6146;48.128;11.476;2023-02-02T02:53:15;6.40;99.90
12166;DHT22;6146;48.128;11.476;2023-02-02T02:56:06;4.30;99.90
12166;DHT22;6146;48.128;11.476;2023-02-02T02:58:50;4.30;99.90
12166;DHT22;6146;48.128;11.476;2023-02-02T03:01:35;4.30;99.90
12166;DHT22;6146;48.128;11.476;2023-02-02T03:04:17;4.30;99.90
12166;DHT22;6146;48.128;11.476;2023-02-02T03:07:03;4.30;99.90
12166;DHT22;6146;48.128;11.476;2023-02-02T03:09:36;4.30;99.90
12166;DHT22;6146;48.128;11.476;2023-02-02T03:12:03;4.40;99.90
12166;DHT22;6146;48.128;11.476;2023-02-02T03:14:34;4.40;99.90
12166;DHT22;6146;48.128;11.476;2023-02-02T03:16:59;4.40;99.90
12166;DHT22;6146;48.128;11.476;2023-02-02T03:19:25;4.40;99.90
12166;DHT22;6146;48.128;11.476;2023-02-02T03:21:50;4.40;99.90
12166;DHT22;6146;48.128;11.476;2023-02-02T03:24:16;4.40;99.90
12166;DHT22;6146;48.128;11.476;2023-02-02T03:26:42;4.40;99.90
12166;DHT22;6146;48.128;11.476;2023-02-02T03:29:08;4.40;99.90
12166;DHT22;6146;48.128;11.476;2023-02-02T03:31:34;4.40;99.90
12166;DHT22;6146;48.128;11.476;2023-02-02T03:33:59;4.20;99.90
12166;DHT22;6146;48.128;11.476;2023-02-02T03:36:25;4.10;99.90
12166;DHT22;6146;48.128;11.476;2023-02-02T03:38:52;4.00;99.90
12166;DHT22;6146;48.128;11.476;2023-02-02T03:41:17;3.90;99.90
12166;DHT22;6146;48.128;11.476;2023-02-02T03:43:43;3.90;99.90
12166;DHT22;6146;48.128;11.476;2023-02-02T03:46:08;3.90;99.90
12166;DHT22;6146;48.128;11.476;2023-02-02T03:48:36;3.90;99.90
12166;DHT22;6146;48.128;11.476;2023-02-02T03:51:09;3.90;99.90
12166;DHT22;6146;48.128;11.476;2023-02-02T03:53:36;4.00;99.90
12166;DHT22;6146;48.128;11.476;2023-02-02T03:56:02;4.00;99.90
12166;DHT22;6146;48.128;11.476;2023-02-02T03:58:28;4.10;99.90
12166;DHT22;6146;48.128;11.476;2023-02-02T04:01:01;4.10;99.90
12166;DHT22;6146;48.128;11.476;2023-02-02T04:03:27;4.10;99.90
12166;DHT22;6146;48.128;11.476;2023-02-02T04:05:52;4.10;99.90
12166;DHT22;6146;48.128;11.476;2023-02-02T04:08:18;4.20;99.90
12166;DHT22;6146;48.128;11.476;2023-02-02T04:10:43;4.20;99.90
12166;DHT22;6146;48.128;11.476;2023-02-02T04:13:09;4.20;99.90
12166;DHT22;6146;48.128;11.476;2023-02-02T04:15:34;4.30;99.90
12166;DHT22;6146;48.128;11.476;2023-02-02T04:18:00;4.20;99.90
12166;DHT22;6146;48.128;11.476;2023-02-02T04:20:25;4.30;99.90
12166;DHT22;6146;48.128;11.476;2023-02-02T04:22:52;4.30;99.90
12166;DHT22;6146;48.128;11.476;2023-02-02T04:25:18;4.40;99.90
12166;DHT22;6146;48.128;11.476;2023-02-02T04:27:43;4.30;99.90
12166;DHT22;6146;48.128;11.476;2023-02-02T04:30:09;4.40;99.90
12166;DHT22;6146;48.128;11.476;2023-02-02T04:32:35;4.40;99.90
12166;DHT22;6146;48.128;11.476;2023-02-02T04:35:01;4.40;99.90
12166;DHT22;6146;48.128;11.476;2023-02-02T04:37:26;4.30;99.90
12166;DHT22;6146;48.128;11.476;2023-02-02T04:39:54;4.30;99.90
12166;DHT22;6146;48.128;11.476;2023-02-02T04:42:20;4.20;99.90
12166;DHT22;6146;48.128;11.476;2023-02-02T04:44:45;4.30;99.90
12166;DHT22;6146;48.128;11.476;2023-02-02T04:47:11;4.30;99.90
12166;DHT22;6146;48.128;11.476;2023-02-02T04:49:37;4.30;99.90
12166;DHT22;6146;48.128;11.476;2023-02-02T04:52:02;4.30;99.90
12166;DHT22;6146;48.128;11.476;2023-02-02T04:54:28;4.40;99.90
12166;DHT22;6146;48.128;11.476;2023-02-02T04:56:54;4.50;99.90
12166;DHT22;6146;48.128;11.476;2023-02-02T04:59:19;4.50;99.90
12166;DHT22;6146;48.128;11.476;2023-02-02T05:01:45;4.50;99.90
12166;DHT22;6146;48.128;11.476;2023-02-02T05:04:11;4.50;99.90
12166;DHT22;6146;48.128;11.476;2023-02-02T05:06:36;4.50;99.90
12166;DHT22;6146;48.128;11.476;2023-02-02T05:09:02;4.50;99.90
12166;DHT22;6146;48.128;11.476;2023-02-02T05:11:28;4.60;99.90
12166;DHT22;6146;48.128;11.476;2023-02-02T05:13:55;4.50;99.90
12166;DHT22;6146;48.128;11.476;2023-02-02T05:16:21;4.60;99.90
12166;DHT22;6146;48.128;11.476;2023-02-02T05:18:53;4.50;99.90
12166;DHT22;6146;48.128;11.476;2023-02-02T05:21:19;4.50;99.90
12166;DHT22;6146;48.128;11.476;2023-02-02T05:23:46;4.60;99.90
12166;DHT22;6146;48.128;11.476;2023-02-02T05:26:22;4.60;99.90
12166;DHT22;6146;48.128;11.476;2023-02-02T05:28:49;4.60;99.90
12166;DHT22;6146;48.128;11.476;2023-02-02T05:31:15;4.60;99.90
12166;DHT22;6146;48.128;11.476;2023-02-02T05:33:40;4.60;99.90
12166;DHT22;6146;48.128;11.476;2023-02-02T05:36:06;4.60;99.90
12166;DHT22;6146;48.128;11.476;2023-02-02T05:38:32;4.60;99.90
12166;DHT22;6146;48.128;11.476;2023-02-02T05:40:58;4.60;99.90
12166;DHT22;6146;48.128;11.476;2023-02-02T05:43:26;4.60;99.90
12166;DHT22;6146;48.128;11.476;2023-02-02T05:45:51;4.60;99.90
12166;DHT22;6146;48.128;11.476;2023-02-02T05:48:17;4.60;99.90
12166;DHT22;6146;48.128;11.476;2023-02-02T05:50:48;4.60;99.90
12166;DHT22;6146;48.128;11.476;2023-02-02T05:53:19;4.50;99.90
12166;DHT22;6146;48.128;11.476;2023-02-02T05:55:45;4.40;99.90
12166;DHT22;6146;48.128;11.476;2023-02-02T05:58:11;4.40;99.90
12166;DHT22;6146;48.128;11.476;2023-02-02T06:00:36;4.50;99.90
12166;DHT22;6146;48.128;11.476;2023-02-02T06:03:02;4.50;99.90
12166;DHT22;6146;48.128;11.476;2023-02-02T06:05:28;4.50;99.90
12166;DHT22;6146;48.128;11.476;2023-02-02T06:07:53;4.50;99.90
12166;DHT22;6146;48.128;11.476;2023-02-02T06:10:19;4.50;99.90
12166;DHT22;6146;48.128;11.476;2023-02-02T06:12:44;4.50;99.90
12166;DHT22;6146;48.128;11.476;2023-02-02T06:15:10;4.50;99.90
12166;DHT22;6146;48.128;11.476;2023-02-02T06:17:36;4.50;99.90
12166;DHT22;6146;48.128;11.476;2023-02-02T06:20:02;4.50;99.90
12166;DHT22;6146;48.128;11.476;2023-02-02T06:22:28;4.50;99.90
12166;DHT22;6146;48.128;11.476;2023-02-02T06:24:54;4.50;99.90
12166;DHT22;6146;48.128;11.476;2023-02-02T06:27:20;4.50;99.90
12166;DHT22;6146;48.128;11.476;2023-02-02T06:29:45;6.20;99.90
12166;DHT22;6146;48.128;11.476;2023-02-02T06:32:11;4.50;99.90
12166;DHT22;6146;48.128;11.476;2023-02-02T06:34:37;4.50;99.90
12166;DHT22;6146;48.128;11.476;2023-02-02T06:37:02;4.50;99.90
12166;DHT22;6146;48.128;11.476;2023-02-02T06:39:28;4.50;99.90
12166;DHT22;6146;48.128;11.476;2023-02-02T06:41:53;4.60;99.90
12166;DHT22;6146;48.128;11.476;2023-02-02T06:44:19;4.50;99.90
12166;DHT22;6146;48.128;11.476;2023-02-02T06:46:45;4.50;99.90
12166;DHT22;6146;48.128;11.476;2023-02-02T06:49:11;4.50;99.90
12166;DHT22;6146;48.128;11.476;2023-02-02T06:51:36;4.60;99.90
12166;DHT22;6146;48.128;11.476;2023-02-02T06:54:02;4.50;99.90
12166;DHT22;6146;48.128;11.476;2023-02-02T06:56:28;4.50;99.90
12166;DHT22;6146;48.128;11.476;2023-02-02T06:58:54;4.50;99.90
12166;DHT22;6146;48.128;11.476;2023-02-02T07:01:19;4.50;99.90
12166;DHT22;6146;48.128;11.476;2023-02-02T07:03:47;4.50;99.90
12166;DHT22;6146;48.128;11.476;2023-02-02T07:06:22;4.50;99.90
12166;DHT22;6146;48.128;11.476;2023-02-02T07:08:49;4.50;99.90
12166;DHT22;6146;48.128;11.476;2023-02-02T07:11:16;4.50;99.90
12166;DHT22;6146;48.128;11.476;2023-02-02T07:13:46;4.50;99.90
12166;DHT22;6146;48.128;11.476;2023-02-02T07:16:13;4.50;99.90
12166;DHT22;6146;48.128;11.476;2023-02-02T07:18:39;4.60;99.90
12166;DHT22;6146;48.128;11.476;2023-02-02T07:21:05;4.50;99.90
12166;DHT22;6146;48.128;11.476;2023-02-02T07:23:32;4.60;99.90
12166;DHT22;6146;48.128;11.476;2023-02-02T07:26:06;4.60;99.90
12166;DHT22;6146;48.128;11.476;2023-02-02T07:28:32;4.60;99.90
12166;DHT22;6146;48.128;11.476;2023-02-02T07:30:59;4.70;99.90
12166;DHT22;6146;48.128;11.476;2023-02-02T07:33:24;4.70;99.90
12166;DHT22;6146;48.128;11.476;2023-02-02T07:35:50;4.80;99.90
12166;DHT22;6146;48.128;11.476;2023-02-02T07:38:16;4.70;99.90
12166;DHT22;6146;48.128;11.476;2023-02-02T07:40:42;4.70;99.90
12166;DHT22;6146;48.128;11.476;2023-02-02T07:43:09;4.70;99.90
12166;DHT22;6146;48.128;11.476;2023-02-02T07:45:34;4.70;99.90
12166;DHT22;6146;48.128;11.476;2023-02-02T07:48:00;4.70;99.90
12166;DHT22;6146;48.128;11.476;2023-02-02T07:50:28;4.80;99.90
12166;DHT22;6146;48.128;11.476;2023-02-02T07:52:53;4.80;99.90
12166;DHT22;6146;48.128;11.476;2023-02-02T07:55:19;4.80;99.90
12166;DHT22;6146;48.128;11.476;2023-02-02T07:57:45;4.80;99.90
12166;DHT22;6146;48.128;11.476;2023-02-02T08:00:11;4.80;99.90
12166;DHT22;6146;48.128;11.476;2023-02-02T08:02:37;4.70;99.90
12166;DHT22;6146;48.128;11.476;2023-02-02T08:05:02;4.70;99.90
12166;DHT22;6146;48.128;11.476;2023-02-02T08:07:29;4.70;99.90
12166;DHT22;6146;48.128;11.476;2023-02-02T08:09:56;4.70;99.90
12166;DHT22;6146;48.128;11.476;2023-02-02T08:12:22;4.70;99.90
12166;DHT22;6146;48.128;11.476;2023-02-02T08:14:48;4.70;99.90
12166;DHT22;6146;48.128;11.476;2023-02-02T08:17:14;4.70;99.90
12166;DHT22;6146;48.128;11.476;2023-02-02T08:19:40;4.70;99.90
12166;DHT22;6146;48.128;11.476;2023-02-02T08:22:05;4.60;99.90
12166;DHT22;6146;48.128;11.476;2023-02-02T08:24:31;4.60;99.90
12166;DHT22;6146;48.128;11.476;2023-02-02T08:26:56;4.60;99.90
12166;DHT22;6146;48.128;11.476;2023-02-02T08:29:22;4.60;99.90
12166;DHT22;6146;48.128;11.476;2023-02-02T08:34:14;4.60;99.90
12166;DHT22;6146;48.128;11.476;2023-02-02T08:36:40;4.60;99.90
12166;DHT22;6146;48.128;11.476;2023-02-02T08:39:09;4.60;99.90
12166;DHT22;6146;48.128;11.476;2023-02-02T08:41:35;4.60;99.90
12166;DHT22;6146;48.128;11.476;2023-02-02T08:44:05;4.60;99.90
12166;DHT22;6146;48.128;11.476;2023-02-02T08:46:31;4.60;99.90
12166;DHT22;6146;48.128;11.476;2023-02-02T08:48:56;4.60;99.90
12166;DHT22;6146;48.128;11.476;2023-02-02T08:51:23;4.60;99.90
12166;DHT22;6146;48.128;11.476;2023-02-02T08:53:48;4.60;99.90
12166;DHT22;6146;48.128;11.476;2023-02-02T08:56:16;4.60;99.90
12166;DHT22;6146;48.128;11.476;2023-02-02T08:58:51;4.50;99.90
12166;DHT22;6146;48.128;11.476;2023-02-02T09:01:21;4.50;99.90
12166;DHT22;6146;48.128;11.476;2023-02-02T09:03:47;4.50;99.90
12166;DHT22;6146;48.128;11.476;2023-02-02T09:06:15;4.50;99.90
12166;DHT22;6146;48.128;11.476;2023-02-02T09:08:41;4.50;99.90
12166;DHT22;6146;48.128;11.476;2023-02-02T09:11:12;4.50;99.90
12166;DHT22;6146;48.128;11.476;2023-02-02T09:13:39;4.60;99.90
12166;DHT22;6146;48.128;11.476;2023-02-02T09:16:08;4.70;99.90
12166;DHT22;6146;48.128;11.476;2023-02-02T09:18:34;4.70;99.90
12166;DHT22;6146;48.128;11.476;2023-02-02T09:21:01;4.60;99.90
12166;DHT22;6146;48.128;11.476;2023-02-02T09:23:32;4.70;99.90
12166;DHT22;6146;48.128;11.476;2023-02-02T09:26:26;4.70;99.90
12166;DHT22;6146;48.128;11.476;2023-02-02T09:28:54;4.70;99.90
12166;DHT22;6146;48.128;11.476;2023-02-02T09:31:20;4.80;99.90
12166;DHT22;6146;48.128;11.476;2023-02-02T09:33:46;4.80;99.90
12166;DHT22;6146;48.128;11.476;2023-02-02T09:36:14;4.80;99.90
12166;DHT22;6146;48.128;11.476;2023-02-02T09:38:40;4.80;99.90
12166;DHT22;6146;48.128;11.476;2023-02-02T09:52:48;4.90;99.90
12166;DHT22;6146;48.128;11.476;2023-02-02T09:55:43;5.00;99.90
12166;DHT22;6146;48.128;11.476;2023-02-02T09:58:23;4.80;99.90
12166;DHT22;6146;48.128;11.476;2023-02-02T10:00:52;4.70;99.90
12166;DHT22;6146;48.128;11.476;2023-02-02T10:03:28;4.70;99.90
12166;DHT22;6146;48.128;11.476;2023-02-02T10:08:34;4.80;99.90
12166;DHT22;6146;48.128;11.476;2023-02-02T10:13:59;4.90;99.90
12166;DHT22;6146;48.128;11.476;2023-02-02T10:16:26;4.80;99.90
12166;DHT22;6146;48.128;11.476;2023-02-02T10:19:05;4.80;99.90
12166;DHT22;6146;48.128;11.476;2023-02-02T10:24:25;4.90;99.90
12166;DHT22;6146;48.128;11.476;2023-02-02T10:27:01;4.90;99.90
12166;DHT22;6146;48.128;11.476;2023-02-02T10:32:13;5.00;99.90
12166;DHT22;6146;48.128;11.476;2023-02-02T10:45:57;5.10;99.90
12166;DHT22;6146;48.128;11.476;2023-02-02T10:48:28;5.20;99.90
12166;DHT22;6146;48.128;11.476;2023-02-02T10:50:59;5.10;99.90
12166;DHT22;6146;48.128;11.476;2023-02-02T10:53:27;5.10;99.90
12166;DHT22;6146;48.128;11.476;2023-02-02T10:56:02;5.10;99.90
12166;DHT22;6146;48.128;11.476;2023-02-02T11:01:51;5.20;99.90
12166;DHT22;6146;48.128;11.476;2023-02-02T11:04:17;5.20;99.90
12166;DHT22;6146;48.128;11.476;2023-02-02T11:07:02;5.30;99.90
12166;DHT22;6146;48.128;11.476;2023-02-02T11:09:35;5.30;99.90
12166;DHT22;6146;48.128;11.476;2023-02-02T11:12:32;5.40;99.90
12166;DHT22;6146;48.128;11.476;2023-02-02T11:15:01;5.40;99.90
12166;DHT22;6146;48.128;11.476;2023-02-02T11:17:27;5.50;99.90
12166;DHT22;6146;48.128;11.476;2023-02-02T11:19:54;5.50;99.90
12166;DHT22;6146;48.128;11.476;2023-02-02T11:22:34;5.60;99.90
12166;DHT22;6146;48.128;11.476;2023-02-02T11:25:05;5.70;99.90
12166;DHT22;6146;48.128;11.476;2023-02-02T11:27:38;5.70;99.90
12166;DHT22;6146;48.128;11.476;2023-02-02T11:30:23;5.90;99.90
12166;DHT22;6146;48.128;11.476;2023-02-02T11:32:52;5.90;99.90
12166;DHT22;6146;48.128;11.476;2023-02-02T11:35:21;5.90;99.90
12166;DHT22;6146;48.128;11.476;2023-02-02T11:38:14;5.80;99.90
12166;DHT22;6146;48.128;11.476;2023-02-02T11:40:54;5.70;99.90
12166;DHT22;6146;48.128;11.476;2023-02-02T11:46:16;5.60;99.90
12166;DHT22;6146;48.128;11.476;2023-02-02T11:48:49;5.50;99.90
12166;DHT22;6146;48.128;11.476;2023-02-02T11:51:23;5.60;99.90
12166;DHT22;6146;48.128;11.476;2023-02-02T11:56:28;5.70;99.90
12166;DHT22;6146;48.128;11.476;2023-02-02T11:58:55;5.70;99.90
12166;DHT22;6146;48.128;11.476;2023-02-02T12:01:24;5.70;99.90
12166;DHT22;6146;48.128;11.476;2023-02-02T12:03:52;5.60;99.90
12166;DHT22;6146;48.128;11.476;2023-02-02T12:06:23;5.60;99.90
12166;DHT22;6146;48.128;11.476;2023-02-02T12:08:52;5.60;99.90
12166;DHT22;6146;48.128;11.476;2023-02-02T12:14:16;5.60;99.90
12166;DHT22;6146;48.128;11.476;2023-02-02T12:23:01;5.50;99.90
12166;DHT22;6146;48.128;11.476;2023-02-02T12:27:47;5.40;99.90
12166;DHT22;6146;48.128;11.476;2023-02-02T12:30:39;5.30;99.90
12166;DHT22;6146;48.128;11.476;2023-02-02T12:33:45;5.20;99.90
12166;DHT22;6146;48.128;11.476;2023-02-02T12:39:32;5.20;99.90
12166;DHT22;6146;48.128;11.476;2023-02-02T12:42:18;5.20;99.90
12166;DHT22;6146;48.128;11.476;2023-02-02T12:47:36;5.10;99.90
12166;DHT22;6146;48.128;11.476;2023-02-02T12:50:50;5.00;99.90
12166;DHT22;6146;48.128;11.476;2023-02-02T12:53:28;4.90;99.90
12166;DHT22;6146;48.128;11.476;2023-02-02T13:12:56;4.70;99.90
12166;DHT22;6146;48.128;11.476;2023-02-02T13:15:33;4.80;99.90
12166;DHT22;6146;48.128;11.476;2023-02-02T13:18:02;4.70;99.90
12166;DHT22;6146;48.128;11.476;2023-02-02T13:21:00;4.60;99.90
12166;DHT22;6146;48.128;11.476;2023-02-02T13:23:31;4.60;99.90
12166;DHT22;6146;48.128;11.476;2023-02-02T13:26:08;4.60;99.90
12166;DHT22;6146;48.128;11.476;2023-02-02T13:31:21;4.60;99.90
12166;DHT22;6146;48.128;11.476;2023-02-02T13:34:04;4.50;99.90
12166;DHT22;6146;48.128;11.476;2023-02-02T13:36:33;4.50;99.90
12166;DHT22;6146;48.128;11.476;2023-02-02T13:39:11;4.50;99.90
12166;DHT22;6146;48.128;11.476;2023-02-02T13:41:37;4.50;99.90
12166;DHT22;6146;48.128;11.476;2023-02-02T13:44:12;4.50;99.90
12166;DHT22;6146;48.128;11.476;2023-02-02T13:46:59;4.50;99.90
12166;DHT22;6146;48.128;11.476;2023-02-02T13:49:34;4.50;99.90
12166;DHT22;6146;48.128;11.476;2023-02-02T13:55:07;4.50;99.90
12166;DHT22;6146;48.128;11.476;2023-02-02T14:00:43;4.40;99.90
12166;DHT22;6146;48.128;11.476;2023-02-02T14:03:25;4.40;99.90
12166;DHT22;6146;48.128;11.476;2023-02-02T14:06:11;4.40;99.90
12166;DHT22;6146;48.128;11.476;2023-02-02T14:11:26;4.40;99.90
12166;DHT22;6146;48.128;11.476;2023-02-02T14:14:16;4.40;99.90
12166;DHT22;6146;48.128;11.476;2023-02-02T14:19:54;4.30;99.90
12166;DHT22;6146;48.128;11.476;2023-02-02T14:27:59;4.40;99.90
12166;DHT22;6146;48.128;11.476;2023-02-02T14:30:28;4.40;99.90
12166;DHT22;6146;48.128;11.476;2023-02-02T14:38:11;4.40;99.90
12166;DHT22;6146;48.128;11.476;2023-02-02T14:40:51;4.40;99.90
12166;DHT22;6146;48.128;11.476;2023-02-02T14:48:46;4.40;99.90
12166;DHT22;6146;48.128;11.476;2023-02-02T14:51:17;4.40;99.90
12166;DHT22;6146;48.128;11.476;2023-02-02T14:53:49;4.40;99.90
12166;DHT22;6146;48.128;11.476;2023-02-02T14:56:16;4.40;99.90
12166;DHT22;6146;48.128;11.476;2023-02-02T15:06:47;4.30;99.90
12166;DHT22;6146;48.128;11.476;2023-02-02T15:17:14;4.40;99.90
12166;DHT22;6146;48.128;11.476;2023-02-02T15:19:48;4.30;99.90
12166;DHT22;6146;48.128;11.476;2023-02-02T15:22:34;4.30;99.90
12166;DHT22;6146;48.128;11.476;2023-02-02T15:25:05;4.30;99.90
12166;DHT22;6146;48.128;11.476;2023-02-02T15:27:37;4.20;99.90
12166;DHT22;6146;48.128;11.476;2023-02-02T15:30:07;4.20;99.90
12166;DHT22;6146;48.128;11.476;2023-02-02T15:32:34;4.30;99.90
12166;DHT22;6146;48.128;11.476;2023-02-02T15:35:03;4.30;99.90
12166;DHT22;6146;48.128;11.476;2023-02-02T15:37:33;4.30;99.90
12166;DHT22;6146;48.128;11.476;2023-02-02T15:40:11;4.30;99.90
12166;DHT22;6146;48.128;11.476;2023-02-02T15:42:45;4.30;99.90
12166;DHT22;6146;48.128;11.476;2023-02-02T15:45:47;4.30;99.90
12166;DHT22;6146;48.128;11.476;2023-02-02T15:48:20;4.30;99.90
12166;DHT22;6146;48.128;11.476;2023-02-02T15:50:48;4.30;99.90
12166;DHT22;6146;48.128;11.476;2023-02-02T15:53:22;4.30;99.90
12166;DHT22;6146;48.128;11.476;2023-02-02T15:55:48;4.30;99.90
12166;DHT22;6146;48.128;11.476;2023-02-02T16:00:54;4.30;99.90
12166;DHT22;6146;48.128;11.476;2023-02-02T16:03:29;4.30;99.90
12166;DHT22;6146;48.128;11.476;2023-02-02T16:05:57;4.30;99.90
12166;DHT22;6146;48.128;11.476;2023-02-02T16:08:30;4.30;99.90
12166;DHT22;6146;48.128;11.476;2023-02-02T16:11:18;4.20;99.90
12166;DHT22;6146;48.128;11.476;2023-02-02T16:16:28;4.20;99.90
12166;DHT22;6146;48.128;11.476;2023-02-02T16:19:23;4.20;99.90
12166;DHT22;6146;48.128;11.476;2023-02-02T16:22:06;4.20;99.90
12166;DHT22;6146;48.128;11.476;2023-02-02T16:24:38;4.30;99.90
12166;DHT22;6146;48.128;11.476;2023-02-02T16:27:06;4.20;99.90
12166;DHT22;6146;48.128;11.476;2023-02-02T16:29:33;4.20;99.90
12166;DHT22;6146;48.128;11.476;2023-02-02T16:31:59;4.20;99.90
12166;DHT22;6146;48.128;11.476;2023-02-02T16:37:06;4.20;99.90
12166;DHT22;6146;48.128;11.476;2023-02-02T16:39:32;4.20;99.90
12166;DHT22;6146;48.128;11.476;2023-02-02T16:42:33;4.20;99.90
12166;DHT22;6146;48.128;11.476;2023-02-02T16:44:59;4.30;99.90
12166;DHT22;6146;48.128;11.476;2023-02-02T16:55:18;4.30;99.90
12166;DHT22;6146;48.128;11.476;2023-02-02T16:57:46;4.40;99.90
12166;DHT22;6146;48.128;11.476;2023-02-02T17:00:27;4.30;99.90
12166;DHT22;6146;48.128;11.476;2023-02-02T17:02:56;4.40;99.90
12166;DHT22;6146;48.128;11.476;2023-02-02T17:05:37;4.40;99.90
12166;DHT22;6146;48.128;11.476;2023-02-02T17:08:08;4.30;99.90
12166;DHT22;6146;48.128;11.476;2023-02-02T17:10:36;4.40;99.90
12166;DHT22;6146;48.128;11.476;2023-02-02T17:15:59;4.40;99.90
12166;DHT22;6146;48.128;11.476;2023-02-02T17:18:25;4.40;99.90
12166;DHT22;6146;48.128;11.476;2023-02-02T17:20:51;4.40;99.90
12166;DHT22;6146;48.128;11.476;2023-02-02T17:23:25;4.40;99.90
12166;DHT22;6146;48.128;11.476;2023-02-02T17:25:52;4.40;99.90
12166;DHT22;6146;48.128;11.476;2023-02-02T17:28:20;4.40;99.90
12166;DHT22;6146;48.128;11.476;2023-02-02T17:30:48;4.40;99.90
12166;DHT22;6146;48.128;11.476;2023-02-02T17:33:16;4.40;99.90
12166;DHT22;6146;48.128;11.476;2023-02-02T17:35:43;4.50;99.90
12166;DHT22;6146;48.128;11.476;2023-02-02T17:38:09;4.50;99.90
12166;DHT22;6146;48.128;11.476;2023-02-02T17:40:35;4.60;99.90
12166;DHT22;6146;48.128;11.476;2023-02-02T17:43:01;4.50;99.90
12166;DHT22;6146;48.128;11.476;2023-02-02T17:45:29;4.60;99.90
12166;DHT22;6146;48.128;11.476;2023-02-02T17:47:55;4.60;99.90
12166;DHT22;6146;48.128;11.476;2023-02-02T17:50:21;4.60;99.90
12166;DHT22;6146;48.128;11.476;2023-02-02T17:52:47;4.60;99.90
12166;DHT22;6146;48.128;11.476;2023-02-02T17:57:52;4.50;99.90
12166;DHT22;6146;48.128;11.476;2023-02-02T18:00:21;4.50;99.90
12166;DHT22;6146;48.128;11.476;2023-02-02T18:02:49;4.50;99.90
12166;DHT22;6146;48.128;11.476;2023-02-02T18:05:16;4.50;99.90
12166;DHT22;6146;48.128;11.476;2023-02-02T18:07:42;4.60;99.90
12166;DHT22;6146;48.128;11.476;2023-02-02T18:10:10;4.60;99.90
12166;DHT22;6146;48.128;11.476;2023-02-02T18:12:36;4.70;99.90
12166;DHT22;6146;48.128;11.476;2023-02-02T18:15:03;4.60;99.90
12166;DHT22;6146;48.128;11.476;2023-02-02T18:17:30;4.60;99.90
12166;DHT22;6146;48.128;11.476;2023-02-02T18:19:55;4.50;99.90
12166;DHT22;6146;48.128;11.476;2023-02-02T18:22:22;4.60;99.90
12166;DHT22;6146;48.128;11.476;2023-02-02T18:24:48;4.60;99.90
12166;DHT22;6146;48.128;11.476;2023-02-02T18:27:14;4.50;99.90
12166;DHT22;6146;48.128;11.476;2023-02-02T18:29:40;4.50;99.90
12166;DHT22;6146;48.128;11.476;2023-02-02T18:32:06;4.50;99.90
12166;DHT22;6146;48.128;11.476;2023-02-02T18:34:33;4.40;99.90
12166;DHT22;6146;48.128;11.476;2023-02-02T18:36:59;4.40;99.90
12166;DHT22;6146;48.128;11.476;2023-02-02T18:39:25;4.40;99.90
12166;DHT22;6146;48.128;11.476;2023-02-02T18:41:51;4.40;99.90
12166;DHT22;6146;48.128;11.476;2023-02-02T18:44:17;4.30;99.90
12166;DHT22;6146;48.128;11.476;2023-02-02T18:46:42;4.30;99.90
12166;DHT22;6146;48.128;11.476;2023-02-02T18:49:09;4.30;99.90